Time;durP1;ratioP1;P1;durP2;ratioP2;P2;SDS_P1;SDS_P2;PMS_P1;PMS_P2;Temp;Humidity;BMP_temperature;BMP_pressure;BME280_temperature;BME280_humidity;BME280_pressure;Samples;Min_cycle;Max_cycle;Signal;HPM_P1;HPM_P2
2022/05/17 00:01:12;;;;;;;2.80;2.00;;;19.20;85.90;;;;;;5053337;28;20452;-62
2022/05/17 00:03:39;;;;;;;2.30;2.10;;;19.30;85.50;;;;;;5053517;28;20453;-61
2022/05/17 00:06:06;;;;;;;4.13;1.97;;;19.30;85.80;;;;;;5053233;28;20456;-61
2022/05/17 00:08:33;;;;;;;5.93;2.00;;;19.30;85.80;;;;;;5053087;28;20449;-61
2022/05/17 00:10:59;;;;;;;2.17;1.90;;;19.30;85.70;;;;;;5052951;28;20547;-61
2022/05/17 00:13:26;;;;;;;2.60;1.87;;;19.20;86.20;;;;;;5053081;28;20535;-61
2022/05/17 00:15:53;;;;;;;2.40;2.20;;;19.10;86.30;;;;;;5052821;28;20480;-61
2022/05/17 00:18:22;;;;;;;3.53;2.77;;;19.10;86.50;;;;;;5052331;28;20539;-61
2022/05/17 00:20:49;;;;;;;2.00;1.80;;;19.10;86.20;;;;;;5053027;28;20448;-61
2022/05/17 00:23:16;;;;;;;6.20;2.33;;;19.20;86.20;;;;;;5053039;28;20910;-61
2022/05/17 00:25:43;;;;;;;2.93;2.70;;;19.10;86.10;;;;;;5052912;28;20464;-62
2022/05/17 00:28:10;;;;;;;2.17;1.97;;;19.10;86.20;;;;;;5053060;28;20480;-62
2022/05/17 00:30:37;;;;;;;2.23;1.80;;;19.10;86.20;;;;;;5053008;28;20455;-62
2022/05/17 00:33:03;;;;;;;5.27;2.00;;;19.10;86.20;;;;;;5052873;28;20454;-62
2022/05/17 00:35:31;;;;;;;2.33;2.13;;;19.00;87.20;;;;;;5052735;28;20558;-61
2022/05/17 00:37:58;;;;;;;2.27;2.10;;;19.00;86.80;;;;;;5052664;28;20455;-62
2022/05/17 00:40:24;;;;;;;3.77;2.40;;;18.90;87.30;;;;;;5052720;28;20447;-61
2022/05/17 00:42:51;;;;;;;2.30;2.10;;;18.90;87.80;;;;;;5052682;28;20888;-61
2022/05/17 00:45:17;;;;;;;4.33;1.87;;;18.90;87.70;;;;;;5052742;28;20447;-61
2022/05/17 00:47:46;;;;;;;2.30;2.10;;;18.90;87.90;;;;;;5052716;28;20547;-61
2022/05/17 00:50:22;;;;;;;7.93;2.67;;;18.80;88.10;;;;;;5052586;28;20552;-61
2022/05/17 00:52:52;;;;;;;2.70;2.30;;;18.80;88.00;;;;;;5052596;28;20447;-61
2022/05/17 00:55:23;;;;;;;3.10;2.30;;;18.70;88.30;;;;;;5052609;28;20452;-61
2022/05/17 00:57:55;;;;;;;2.80;2.60;;;18.70;89.40;;;;;;5052694;28;20459;-62
2022/05/17 01:00:23;;;;;;;4.70;2.30;;;18.80;89.70;;;;;;5052593;28;20448;-61
2022/05/17 01:02:54;;;;;;;2.03;1.83;;;18.80;90.50;;;;;;5052482;28;20545;-61
2022/05/17 01:05:22;;;;;;;3.20;1.83;;;18.80;91.30;;;;;;5052662;28;20498;-61
2022/05/17 01:07:53;;;;;;;3.90;2.20;;;18.80;91.30;;;;;;5052540;28;20448;-61
2022/05/17 01:10:20;;;;;;;2.47;2.20;;;18.70;92.00;;;;;;5052391;28;21046;-61
2022/05/17 01:14:57;;;;;;;2.50;2.30;;;18.70;92.40;;;;;;5052455;28;20535;-61
2022/05/17 01:15:34;;;;;;;3.00;2.70;;;18.70;92.60;;;;;;5052256;28;20464;-61
2022/05/17 01:18:01;;;;;;;4.77;2.10;;;18.70;94.10;;;;;;5052543;28;20547;-61
2022/05/17 01:20:28;;;;;;;3.20;2.90;;;18.60;95.00;;;;;;5052470;28;20543;-61
2022/05/17 01:22:56;;;;;;;2.80;2.40;;;18.60;95.90;;;;;;5052416;28;20539;-61
2022/05/17 01:25:22;;;;;;;2.70;2.17;;;18.50;95.70;;;;;;5052327;28;20452;-61
2022/05/17 01:27:54;;;;;;;2.30;2.10;;;18.60;95.70;;;;;;5053051;28;20449;-61
2022/05/17 01:30:24;;;;;;;3.13;2.10;;;18.70;93.60;;;;;;5055898;28;20578;-61
2022/05/17 01:32:50;;;;;;;9.03;2.30;;;18.70;93.90;;;;;;5056275;28;20838;-61
2022/05/17 01:35:18;;;;;;;3.07;2.37;;;18.70;94.00;;;;;;5055975;28;20538;-61
2022/05/17 01:37:45;;;;;;;2.47;2.27;;;18.70;94.10;;;;;;5055875;28;20478;-61
2022/05/17 01:40:13;;;;;;;7.47;2.30;;;18.70;93.90;;;;;;5055736;28;20631;-61
2022/05/17 01:42:40;;;;;;;3.70;2.60;;;18.70;94.20;;;;;;5055525;28;20538;-61
2022/05/17 01:45:07;;;;;;;6.83;2.50;;;18.70;94.00;;;;;;5056120;28;20559;-61
2022/05/17 01:47:34;;;;;;;2.77;2.30;;;18.60;94.50;;;;;;5055825;28;20483;-61
2022/05/17 01:50:00;;;;;;;3.43;2.67;;;18.60;94.70;;;;;;5055644;28;20551;-61
2022/05/17 01:52:27;;;;;;;2.83;2.43;;;18.50;95.80;;;;;;5055607;28;20531;-61
2022/05/17 01:54:53;;;;;;;4.20;2.53;;;18.40;96.50;;;;;;5055556;28;20866;-61
2022/05/17 01:57:21;;;;;;;4.43;2.40;;;18.30;96.40;;;;;;5055357;28;20487;-61
2022/05/17 01:59:48;;;;;;;6.60;2.70;;;18.40;97.50;;;;;;5055586;28;20495;-61
2022/05/17 02:02:14;;;;;;;4.90;2.23;;;18.10;98.60;;;;;;5055502;28;20539;-61
2022/05/17 02:04:42;;;;;;;4.47;2.70;;;18.00;99.40;;;;;;5055336;28;20455;-61
2022/05/17 02:07:08;;;;;;;3.90;2.70;;;18.00;99.50;;;;;;5055353;28;20901;-61
2022/05/17 02:09:35;;;;;;;3.20;2.90;;;18.10;99.90;;;;;;5055165;28;20455;-61
2022/05/17 02:12:02;;;;;;;4.97;2.70;;;18.10;99.90;;;;;;5055132;28;20531;-61
2022/05/17 02:14:30;;;;;;;4.33;2.57;;;18.20;99.90;;;;;;5055082;28;20480;-61
2022/05/17 02:16:59;;;;;;;5.10;3.57;;;18.20;99.90;;;;;;5055159;28;20488;-61
2022/05/17 02:19:25;;;;;;;4.90;2.60;;;18.30;99.90;;;;;;5055071;28;20538;-61
2022/05/17 02:21:51;;;;;;;4.17;2.83;;;18.20;99.90;;;;;;5054965;28;20488;-61
2022/05/17 02:24:18;;;;;;;4.53;2.80;;;18.20;99.90;;;;;;5054872;28;20549;-61
2022/05/17 02:26:44;;;;;;;11.60;2.83;;;18.00;99.90;;;;;;5055126;28;20539;-61
2022/05/17 02:29:11;;;;;;;3.50;2.47;;;18.00;99.90;;;;;;5055006;28;20543;-61
2022/05/17 02:31:39;;;;;;;3.17;2.87;;;17.90;99.90;;;;;;5054873;28;20448;-61
2022/05/17 02:34:05;;;;;;;3.70;2.90;;;17.80;99.90;;;;;;5054870;28;20497;-61
2022/05/17 02:36:32;;;;;;;4.13;2.97;;;17.60;99.90;;;;;;5054674;28;20553;-61
2022/05/17 02:38:58;;;;;;;2.60;2.40;;;17.70;99.90;;;;;;5054303;28;20535;-61
2022/05/17 02:41:25;;;;;;;5.23;3.10;;;17.70;99.90;;;;;;5054027;28;20455;-61
2022/05/17 02:43:53;;;;;;;6.10;2.60;;;17.80;99.90;;;;;;5054430;28;20494;-61
2022/05/17 02:46:19;;;;;;;4.90;2.50;;;17.80;99.90;;;;;;5054665;28;20448;-61
2022/05/17 02:48:47;;;;;;;2.90;2.70;;;17.90;99.90;;;;;;5054503;28;20535;-61
2022/05/17 02:51:15;;;;;;;2.63;2.43;;;17.90;99.90;;;;;;5054406;28;20868;-61
2022/05/17 02:53:42;;;;;;;3.10;2.80;;;18.00;99.90;;;;;;5054602;28;20460;-61
2022/05/17 02:56:09;;;;;;;4.47;3.37;;;18.00;99.90;;;;;;5054475;28;20828;-61
2022/05/17 02:58:37;;;;;;;5.10;3.20;;;17.80;99.90;;;;;;5054648;28;20454;-61
2022/05/17 03:01:04;;;;;;;5.20;2.93;;;17.90;99.90;;;;;;5054295;28;20505;-61
2022/05/17 03:03:31;;;;;;;7.10;3.53;;;17.90;99.90;;;;;;5054170;28;20884;-61
2022/05/17 03:06:00;;;;;;;3.57;2.80;;;17.80;99.90;;;;;;5054083;28;20539;-61
2022/05/17 03:08:26;;;;;;;6.43;3.33;;;17.80;99.90;;;;;;5054175;28;20440;-61
2022/05/17 03:10:52;;;;;;;5.20;3.10;;;17.90;99.90;;;;;;5054144;28;20532;-61
2022/05/17 03:13:19;;;;;;;3.00;2.63;;;;;;;;;;5054115;28;20444;-61
2022/05/17 03:15:46;;;;;;;2.70;2.50;;;17.70;99.90;;;;;;5054037;28;20527;-61
2022/05/17 03:18:12;;;;;;;6.30;2.87;;;17.60;99.90;;;;;;5053851;28;20484;-61
2022/05/17 03:20:39;;;;;;;5.70;3.10;;;17.50;99.90;;;;;;5053737;28;20535;-61
2022/05/17 03:23:07;;;;;;;2.93;2.73;;;17.40;99.90;;;;;;5054013;28;20484;-61
2022/05/17 03:25:33;;;;;;;3.30;2.90;;;17.20;99.90;;;;;;5054036;28;20429;-62
2022/05/17 03:28:00;;;;;;;4.97;3.40;;;17.30;99.90;;;;;;5053905;28;20543;-62
2022/05/17 03:30:27;;;;;;;3.40;2.80;;;17.20;99.90;;;;;;5053784;28;20959;-62
2022/05/17 03:32:53;;;;;;;6.73;3.37;;;17.00;99.90;;;;;;5053575;28;20452;-62
2022/05/17 03:35:20;;;;;;;5.03;3.00;;;17.00;99.90;;;;;;5053870;28;20555;-61
2022/05/17 03:37:47;;;;;;;4.03;3.37;;;17.10;99.90;;;;;;5053604;28;20490;-61
2022/05/17 03:40:15;;;;;;;3.37;3.07;;;17.00;99.90;;;;;;5053617;28;20459;-61
2022/05/17 03:42:42;;;;;;;5.93;3.13;;;16.80;99.90;;;;;;5053443;28;20563;-61
2022/05/17 03:45:09;;;;;;;3.40;2.90;;;16.80;99.90;;;;;;5053462;28;20539;-61
2022/05/17 03:47:36;;;;;;;3.90;3.33;;;16.90;99.90;;;;;;5053461;28;20483;-61
2022/05/17 03:50:03;;;;;;;3.80;3.30;;;16.80;99.90;;;;;;5053608;28;20939;-61
2022/05/17 03:52:32;;;;;;;3.40;3.10;;;16.70;99.90;;;;;;5053309;28;20891;-61
2022/05/17 03:55:00;;;;;;;3.67;3.10;;;16.80;99.90;;;;;;5053390;28;20451;-61
2022/05/17 03:57:28;;;;;;;4.03;3.17;;;16.70;99.90;;;;;;5053225;28;20567;-61
2022/05/17 03:59:55;;;;;;;5.83;3.37;;;16.70;99.90;;;;;;5053384;28;20535;-61
2022/05/17 04:02:23;;;;;;;4.00;3.50;;;16.70;99.90;;;;;;5053068;28;20445;-61
2022/05/17 04:04:52;;;;;;;3.73;3.43;;;16.60;99.90;;;;;;5053250;28;20444;-61
2022/05/17 04:07:19;;;;;;;4.47;4.10;;;16.60;99.90;;;;;;5053162;28;20967;-61
2022/05/17 04:09:45;;;;;;;8.40;3.80;;;16.40;99.90;;;;;;5053056;28;20540;-61
2022/05/17 04:12:12;;;;;;;4.70;4.17;;;16.30;99.90;;;;;;5053145;28;20546;-61
2022/05/17 04:14:40;;;;;;;5.57;3.83;;;16.30;99.90;;;;;;5052820;28;20890;-61
2022/05/17 04:17:07;;;;;;;4.73;4.30;;;16.30;99.90;;;;;;5053053;28;20488;-61
2022/05/17 04:19:34;;;;;;;4.40;3.30;;;16.30;99.90;;;;;;5053042;28;20981;-61
2022/05/17 04:22:00;;;;;;;6.67;4.03;;;16.30;99.90;;;;;;5053130;28;20544;-60
2022/05/17 04:24:27;;;;;;;8.03;4.27;;;16.40;99.90;;;;;;5052913;28;20448;-60
2022/05/17 04:26:54;;;;;;;5.13;4.73;;;16.20;99.90;;;;;;5053074;28;20450;-60
2022/05/17 04:29:21;;;;;;;6.50;3.80;;;16.10;99.90;;;;;;5052652;28;20472;-60
2022/05/17 04:31:49;;;;;;;5.97;4.10;;;16.10;99.90;;;;;;5052910;28;20448;-60
2022/05/17 04:34:15;;;;;;;4.67;4.00;;;16.20;99.90;;;;;;5052850;28;20462;-60
2022/05/17 04:36:42;;;;;;;4.40;4.10;;;16.10;99.90;;;;;;5052682;28;20827;-60
2022/05/17 04:39:08;;;;;;;6.37;4.33;;;16.00;99.90;;;;;;5052696;28;20458;-61
2022/05/17 04:41:35;;;;;;;4.93;4.53;;;16.10;99.90;;;;;;5052669;28;20498;-61
2022/05/17 04:44:01;;;;;;;4.47;4.13;;;16.10;99.90;;;;;;5052358;28;21054;-60
2022/05/17 04:46:27;;;;;;;5.80;4.17;;;16.20;99.90;;;;;;5052654;28;20543;-61
2022/05/17 04:48:55;;;;;;;5.70;4.20;;;16.20;99.90;;;;;;5052561;28;20535;-61
2022/05/17 04:51:22;;;;;;;4.83;4.43;;;16.10;99.90;;;;;;5052593;28;20445;-61
2022/05/17 04:53:48;;;;;;;6.90;4.40;;;16.20;99.90;;;;;;5052562;28;20452;-61
2022/05/17 04:56:15;;;;;;;7.73;4.70;;;16.20;99.90;;;;;;5052501;28;20452;-61
2022/05/17 04:58:43;;;;;;;6.47;4.53;;;16.00;99.90;;;;;;5052326;28;20571;-61
2022/05/17 05:01:09;;;;;;;6.50;4.00;;;16.00;99.90;;;;;;5052532;28;20847;-61
2022/05/17 05:03:36;;;;;;;7.37;5.50;;;16.20;99.90;;;;;;5054288;28;20452;-61
2022/05/17 05:06:04;;;;;;;8.07;4.93;;;16.20;99.90;;;;;;5056403;28;20866;-61
2022/05/17 05:08:30;;;;;;;6.03;4.43;;;16.20;99.90;;;;;;5056303;28;20895;-61
2022/05/17 05:10:57;;;;;;;4.97;4.20;;;16.00;99.90;;;;;;5056228;28;20452;-61
2022/05/17 05:13:25;;;;;;;8.60;5.13;;;15.90;99.90;;;;;;5056407;28;20474;-61
2022/05/17 05:15:51;;;;;;;6.70;5.13;;;15.80;99.90;;;;;;5056409;28;20804;-61
2022/05/17 05:18:18;;;;;;;5.67;4.40;;;15.80;99.90;;;;;;5056219;28;20519;-61
2022/05/17 05:20:45;;;;;;;4.50;4.10;;;15.70;99.90;;;;;;5056235;28;20506;-61
2022/05/17 05:23:13;;;;;;;8.20;5.67;;;15.80;99.90;;;;;;5056003;28;20547;-61
2022/05/17 05:25:40;;;;;;;5.50;4.47;;;15.90;99.90;;;;;;5056127;28;20810;-61
2022/05/17 05:28:08;;;;;;;5.30;4.80;;;15.70;99.90;;;;;;5056156;28;20452;-61
2022/05/17 05:30:35;;;;;;;5.97;5.00;;;15.70;99.90;;;;;;5056058;28;20479;-61
2022/05/17 05:33:02;;;;;;;6.53;5.60;;;15.70;99.90;;;;;;5055960;28;20988;-61
2022/05/17 05:35:29;;;;;;;9.07;5.23;;;15.80;99.90;;;;;;5055750;28;20522;-61
2022/05/17 05:37:56;;;;;;;7.70;5.80;;;15.90;99.90;;;;;;5055571;28;20476;-61
2022/05/17 05:40:24;;;;;;;7.30;5.10;;;15.80;99.90;;;;;;5055811;28;20547;-61
2022/05/17 05:42:51;;;;;;;7.57;5.70;;;15.20;99.90;;;;;;5055655;28;20568;-61
2022/05/17 05:45:19;;;;;;;10.20;6.30;;;15.20;99.90;;;;;;5055719;28;20815;-60
2022/05/17 05:47:46;;;;;;;8.17;6.30;;;15.10;99.90;;;;;;5055672;28;20808;-60
2022/05/17 05:50:12;;;;;;;6.77;5.63;;;15.30;99.90;;;;;;5055484;28;20543;-60
2022/05/17 05:52:39;;;;;;;9.43;6.00;;;15.50;99.90;;;;;;5055437;28;20514;-60
2022/05/17 05:55:07;;;;;;;6.47;5.87;;;15.70;99.90;;;;;;5055220;28;20963;-60
2022/05/17 05:57:35;;;;;;;6.00;5.40;;;15.80;99.90;;;;;;5055401;28;20482;-60
2022/05/17 06:00:03;;;;;;;7.30;5.90;;;15.90;99.90;;;;;;5055349;28;20543;-60
2022/05/17 06:02:29;;;;;;;9.80;6.00;;;15.90;99.90;;;;;;5055386;28;20552;-61
2022/05/17 06:04:56;;;;;;;8.43;4.60;;;15.80;99.90;;;;;;5055215;28;20487;-60
2022/05/17 06:07:22;;;;;;;8.63;5.00;;;15.80;99.90;;;;;;5055154;28;20844;-61
2022/05/17 06:09:49;;;;;;;6.20;5.10;;;15.80;99.90;;;;;;5055287;28;20513;-61
2022/05/17 06:12:16;;;;;;;6.87;6.07;;;15.70;99.90;;;;;;5055280;28;20455;-61
2022/05/17 06:14:43;;;;;;;9.43;7.00;;;15.70;99.90;;;;;;5055092;28;20464;-61
2022/05/17 06:17:11;;;;;;;7.43;5.80;;;15.50;99.90;;;;;;5054944;28;20472;-61
2022/05/17 06:19:37;;;;;;;10.20;5.63;;;15.60;99.90;;;;;;5055021;28;20452;-62
2022/05/17 06:22:04;;;;;;;9.80;6.47;;;15.60;99.90;;;;;;5055546;28;20564;-61
2022/05/17 06:24:31;;;;;;;9.33;6.10;;;15.60;99.90;;;;;;5055106;28;20448;-61
2022/05/17 06:26:57;;;;;;;6.93;5.60;;;15.60;99.90;;;;;;5054988;28;20544;-61
2022/05/17 06:29:24;;;;;;;6.43;5.30;;;15.70;99.90;;;;;;5055174;28;20455;-61
2022/05/17 06:31:52;;;;;;;6.70;5.90;;;15.80;99.90;;;;;;5054851;28;20476;-61
2022/05/17 06:34:18;;;;;;;7.23;5.53;;;15.80;99.90;;;;;;5054547;28;20510;-61
2022/05/17 06:36:45;;;;;;;10.23;5.90;;;15.80;99.90;;;;;;5055073;28;20539;-61
2022/05/17 06:39:11;;;;;;;6.17;5.57;;;15.80;99.90;;;;;;5054627;28;20582;-61
2022/05/17 06:41:38;;;;;;;6.53;5.83;;;15.90;99.90;;;;;;5054665;28;20545;-61
2022/05/17 06:44:06;;;;;;;6.63;5.87;;;16.10;99.90;;;;;;5054375;28;20472;-60
2022/05/17 06:46:32;;;;;;;6.73;6.07;;;16.10;99.90;;;;;;5054515;28;20456;-61
2022/05/17 06:49:00;;;;;;;11.37;6.97;;;16.10;99.90;;;;;;5054810;28;20533;-60
2022/05/17 06:51:27;;;;;;;8.03;6.03;;;16.10;99.90;;;;;;5054524;28;20474;-61
2022/05/17 06:53:53;;;;;;;9.43;6.20;;;16.20;99.90;;;;;;5054294;28;20967;-61
2022/05/17 06:56:20;;;;;;;6.67;5.40;;;16.20;99.90;;;;;;5054470;28;20483;-61
2022/05/17 06:58:46;;;;;;;8.10;5.70;;;16.20;99.90;;;;;;5054197;28;21072;-61
2022/05/17 07:01:13;;;;;;;6.07;5.50;;;16.10;99.90;;;;;;5054040;28;20540;-61
2022/05/17 07:03:39;;;;;;;6.73;5.40;;;16.00;99.90;;;;;;5054146;28;20859;-61
2022/05/17 07:06:07;;;;;;;7.70;6.67;;;15.90;99.90;;;;;;5054216;28;20544;-61
2022/05/17 07:08:33;;;;;;;6.17;5.57;;;15.80;99.90;;;;;;5054026;28;20934;-61
2022/05/17 07:13:44;;;;;;;6.50;5.90;;;15.80;99.90;;;;;;5053783;28;20443;-61
2022/05/17 07:16:11;;;;;;;8.03;6.27;;;15.80;99.90;;;;;;5053622;28;20513;-60
2022/05/17 07:18:38;;;;;;;6.67;6.07;;;15.80;99.90;;;;;;5053632;28;21002;-60
2022/05/17 07:21:04;;;;;;;8.97;7.50;;;16.00;99.90;;;;;;5051896;28;20552;-60
2022/05/17 07:23:32;;;;;;;7.40;6.40;;;15.90;99.90;;;;;;5050975;28;21015;-51
2022/05/17 07:25:59;;;;;;;7.17;6.53;;;16.00;99.90;;;;;;5044136;28;20806;-58
2022/05/17 07:28:26;;;;;;;7.43;6.40;;;16.00;99.90;;;;;;5053692;28;20547;-58
2022/05/17 07:30:53;;;;;;;7.87;6.87;;;15.80;99.90;;;;;;5049099;28;20448;-59
2022/05/17 07:33:20;;;;;;;7.20;6.50;;;15.80;99.90;;;;;;5056149;28;20455;-56
2022/05/17 07:35:47;;;;;;;9.13;6.60;;;15.80;99.90;;;;;;5052340;28;20448;-57
2022/05/17 07:38:15;;;;;;;7.60;5.73;;;15.90;99.90;;;;;;5053365;28;20579;-56
2022/05/17 07:40:43;;;;;;;5.67;5.10;;;16.00;99.90;;;;;;5047592;28;20544;-56
2022/05/17 07:43:09;;;;;;;6.80;6.20;;;16.10;99.90;;;;;;5033276;28;20524;-56
2022/05/17 07:45:36;;;;;;;9.20;6.43;;;16.20;99.90;;;;;;5045238;28;20518;-56
2022/05/17 07:48:03;;;;;;;6.60;5.70;;;16.00;99.90;;;;;;5053953;28;20462;-55
2022/05/17 07:50:30;;;;;;;6.43;5.83;;;16.20;99.90;;;;;;5038853;28;20552;-56
2022/05/17 07:52:56;;;;;;;9.90;7.43;;;16.20;99.90;;;;;;5043164;28;20464;-59
2022/05/17 07:55:23;;;;;;;10.57;6.50;;;16.00;99.90;;;;;;5056072;28;20451;-59
2022/05/17 07:57:51;;;;;;;8.17;5.90;;;16.00;99.90;;;;;;5053189;28;20468;-58
2022/05/17 08:00:18;;;;;;;8.20;5.70;;;16.00;99.90;;;;;;5052337;28;20539;-58
2022/05/17 08:02:44;;;;;;;6.60;6.10;;;16.10;99.90;;;;;;5046640;28;20932;-59
2022/05/17 08:05:11;;;;;;;9.87;6.47;;;16.20;99.90;;;;;;5036974;28;20536;-59
2022/05/17 08:07:37;;;;;;;6.83;6.13;;;16.50;99.90;;;;;;5071752;28;20542;-57
2022/05/17 08:10:05;;;;;;;7.37;5.67;;;16.40;99.90;;;;;;5072596;28;20474;-59
2022/05/17 08:12:31;;;;;;;6.67;6.17;;;16.50;99.90;;;;;;5057263;28;21284;-61
2022/05/17 08:14:59;;;;;;;10.10;5.80;;;16.80;99.90;;;;;;5052964;28;20444;-61
2022/05/17 08:17:25;;;;;;;8.90;6.00;;;16.70;99.90;;;;;;5052931;28;20423;-63
2022/05/17 08:19:52;;;;;;;7.23;6.50;;;17.00;99.90;;;;;;5052369;28;20987;-61
2022/05/17 08:22:18;;;;;;;7.83;6.30;;;17.10;99.90;;;;;;5050996;28;20478;-61
2022/05/17 08:27:32;;;;;;;6.50;5.90;;;17.40;99.90;;;;;;5053911;28;20969;-61
2022/05/17 08:30:00;;;;;;;6.10;5.60;;;17.60;99.90;;;;;;5032871;28;20480;-60
2022/05/17 08:35:11;;;;;;;7.37;6.70;;;18.00;99.90;;;;;;5051231;28;20502;-61
2022/05/17 08:37:37;;;;;;;7.80;6.50;;;18.20;99.90;;;;;;5052728;28;20440;-61
2022/05/17 08:40:05;;;;;;;8.70;6.40;;;18.30;99.90;;;;;;5056887;28;20448;-61
2022/05/17 08:42:41;;;;;;;7.37;6.33;;;18.60;99.90;;;;;;5057368;28;20530;-61
2022/05/17 08:45:16;;;;;;;6.37;5.13;;;18.90;99.90;;;;;;5056858;28;20448;-61
2022/05/17 08:47:49;;;;;;;6.93;5.70;;;19.00;99.90;;;;;;5056238;28;20448;-60
2022/05/17 08:50:20;;;;;;;7.37;6.20;;;19.00;99.90;;;;;;5059830;28;20488;-61
2022/05/17 08:52:46;;;;;;;7.73;5.67;;;19.20;99.90;;;;;;5056640;28;20444;-61
2022/05/17 08:55:19;;;;;;;6.23;5.63;;;19.10;99.90;;;;;;5056309;28;20464;-61
2022/05/17 08:57:49;;;;;;;7.40;5.77;;;18.90;99.90;;;;;;5061108;28;20451;-59
2022/05/17 09:00:20;;;;;;;6.53;5.20;;;19.20;99.90;;;;;;5055184;28;20456;-54
2022/05/17 09:02:51;;;;;;;7.40;5.50;;;19.30;99.90;;;;;;5056264;28;20483;-54
2022/05/17 09:05:33;;;;;;;5.63;5.03;;;19.30;99.90;;;;;;5058489;28;20538;-56
2022/05/17 09:08:11;;;;;;;5.63;5.10;;;19.40;99.90;;;;;;5076200;28;21014;-59
2022/05/17 09:10:39;;;;;;;6.63;5.90;;;19.40;99.90;;;;;;5076155;28;20450;-59
2022/05/17 09:13:13;;;;;;;6.80;6.10;;;19.50;99.90;;;;;;5076167;28;20534;-59
2022/05/17 09:15:41;;;;;;;8.43;5.90;;;19.70;99.90;;;;;;5075229;28;20547;-58
2022/05/17 09:18:10;;;;;;;6.80;6.20;;;19.90;99.90;;;;;;5068286;28;20551;-59
2022/05/17 09:20:39;;;;;;;8.33;6.50;;;19.70;99.90;;;;;;5056039;28;20456;-55
2022/05/17 09:23:06;;;;;;;10.63;6.37;;;19.50;99.90;;;;;;5055946;28;20486;-61
2022/05/17 09:25:49;;;;;;;8.20;6.70;;;19.40;99.90;;;;;;5056024;28;20539;-64
2022/05/17 09:28:20;;;;;;;7.30;6.70;;;19.60;99.90;;;;;;5056127;28;20452;-64
2022/05/17 09:30:48;;;;;;;7.90;7.10;;;19.50;99.90;;;;;;5056167;28;20539;-62
2022/05/17 09:33:21;;;;;;;11.20;7.07;;;19.80;99.90;;;;;;5056098;28;20452;-59
2022/05/17 09:35:57;;;;;;;9.40;6.97;;;19.90;99.90;;;;;;5051208;28;20456;-60
2022/05/17 09:38:23;;;;;;;11.10;8.27;;;20.30;99.90;;;;;;5054985;28;20575;-59
2022/05/17 09:40:52;;;;;;;9.37;7.20;;;20.60;99.90;;;;;;5055406;28;20533;-58
2022/05/17 09:43:25;;;;;;;11.37;6.80;;;20.70;99.90;;;;;;5054919;28;20593;-59
2022/05/17 09:45:58;;;;;;;6.60;6.00;;;21.00;99.90;;;;;;5057972;28;20531;-60
2022/05/17 09:48:31;;;;;;;15.10;8.37;;;21.40;99.90;;;;;;5056853;28;20929;-59
2022/05/17 09:53:45;;;;;;;9.90;6.77;;;21.60;99.90;;;;;;5054573;28;20455;-59
2022/05/17 09:56:13;;;;;;;9.67;7.50;;;21.70;99.90;;;;;;5055250;28;20448;-60
2022/05/17 09:58:42;;;;;;;8.10;7.30;;;21.70;99.90;;;;;;5054339;28;20483;-59
2022/05/17 10:01:15;;;;;;;11.70;8.50;;;21.40;99.90;;;;;;5052309;28;20463;-58
2022/05/17 10:03:44;;;;;;;8.87;7.03;;;21.20;99.90;;;;;;5035384;28;20539;-60
2022/05/17 10:06:15;;;;;;;9.33;7.20;;;21.50;99.90;;;;;;5039671;28;20808;-61
2022/05/17 10:08:46;;;;;;;9.80;7.67;;;21.80;99.90;;;;;;5055085;28;20467;-58
2022/05/17 10:11:20;;;;;;;8.93;8.03;;;22.00;99.90;;;;;;5056148;28;20448;-59
2022/05/17 10:14:10;;;;;;;10.70;7.90;;;21.90;99.90;;;;;;5053754;28;20456;-59
2022/05/17 10:16:46;;;;;;;11.27;7.27;;;21.80;99.90;;;;;;5051519;28;20495;-58
2022/05/17 10:19:19;;;;;;;8.90;7.97;;;21.90;99.90;;;;;;5055411;28;20499;-57
2022/05/17 10:21:49;;;;;;;9.37;7.30;;;22.00;99.90;;;;;;5039326;28;20514;-59
2022/05/17 10:24:24;;;;;;;10.83;8.40;;;21.80;99.90;;;;;;5074306;28;20444;-60
2022/05/17 10:26:58;;;;;;;12.80;9.00;;;21.70;99.90;;;;;;5074795;28;20471;-59
2022/05/17 10:29:30;;;;;;;10.97;8.90;;;21.20;99.90;;;;;;5055726;28;20459;-59
2022/05/17 10:32:02;;;;;;;9.47;8.47;;;20.90;99.90;;;;;;5054422;28;20543;-59
2022/05/17 10:34:43;;;;;;;13.30;11.03;;;20.80;99.90;;;;;;5058049;28;20456;-61
2022/05/17 10:37:14;;;;;;;12.90;11.50;;;20.80;99.90;;;;;;5057301;28;20812;-58
2022/05/17 10:39:46;;;;;;;12.20;10.50;;;20.50;99.90;;;;;;5053713;28;20522;-58
2022/05/17 10:42:13;;;;;;;14.17;10.20;;;20.60;99.90;;;;;;5053453;28;21046;-59
2022/05/17 10:44:42;;;;;;;12.27;11.07;;;20.70;99.90;;;;;;5055194;28;20538;-59
2022/05/17 10:47:18;;;;;;;16.03;11.33;;;21.00;99.90;;;;;;5057593;28;20198;-61
2022/05/17 10:49:59;;;;;;;9.53;8.60;;;21.30;99.90;;;;;;5054144;28;20538;-61
2022/05/17 10:52:32;;;;;;;17.80;11.20;;;21.40;99.90;;;;;;5053340;28;20955;-61
2022/05/17 10:55:11;;;;;;;15.13;11.27;;;21.60;99.90;;;;;;5054466;28;20540;-67
2022/05/17 10:57:48;;;;;;;15.50;11.87;;;21.30;99.90;;;;;;5054096;28;20452;-62
2022/05/17 11:00:19;;;;;;;11.70;9.63;;;21.50;99.90;;;;;;5037498;28;20818;-61
2022/05/17 11:03:23;;;;;;;11.93;9.67;;;21.70;99.90;;;;;;5032356;28;20449;-61
2022/05/17 11:06:02;;;;;;;12.33;9.90;;;21.80;99.90;;;;;;5057087;28;20454;-61
2022/05/17 11:08:38;;;;;;;22.17;10.60;;;22.00;99.90;;;;;;5052873;28;20451;-56
2022/05/17 11:11:16;;;;;;;10.47;9.30;;;21.90;99.90;;;;;;5043502;28;20460;-57
2022/05/17 11:13:48;;;;;;;11.13;10.03;;;21.60;99.90;;;;;;5049651;28;20801;-60
2022/05/17 11:16:21;;;;;;;12.03;10.20;;;21.90;99.90;;;;;;5062092;28;20939;-60
2022/05/17 11:18:52;;;;;;;10.43;9.37;;;21.90;99.90;;;;;;5053990;28;20472;-60
2022/05/17 11:21:24;;;;;;;11.90;8.97;;;21.80;99.90;;;;;;5033906;28;20456;-60
2022/05/17 11:23:54;;;;;;;10.20;8.80;;;21.70;99.90;;;;;;5044370;28;20549;-62
2022/05/17 11:26:52;;;;;;;8.20;7.40;;;21.70;99.90;;;;;;5033892;28;20449;-59
2022/05/17 11:29:44;;;;;;;13.03;8.93;;;22.00;99.90;;;;;;5049473;28;21025;-61
2022/05/17 11:32:23;;;;;;;12.50;9.50;;;22.20;99.90;;;;;;5052850;28;20453;-61
2022/05/17 11:34:53;;;;;;;10.97;8.93;;;22.40;99.90;;;;;;5055385;28;20456;-61
2022/05/17 11:37:49;;;;;;;11.03;8.90;;;22.70;99.90;;;;;;5053457;28;20444;-61
2022/05/17 11:41:00;;;;;;;11.43;9.00;;;22.60;99.90;;;;;;5053369;28;20831;-61
2022/05/17 11:43:48;;;;;;;10.63;8.97;;;22.60;99.90;;;;;;4991819;28;21008;-61
2022/05/17 11:46:51;;;;;;;10.43;7.50;;;22.70;99.90;;;;;;5046038;28;21049;-61
2022/05/17 11:49:46;;;;;;;9.77;8.40;;;22.60;99.90;;;;;;5053416;28;20949;-57
2022/05/17 11:52:36;;;;;;;10.20;9.20;;;22.80;99.90;;;;;;5051544;28;20498;-60
2022/05/17 11:55:07;;;;;;;12.07;9.17;;;22.50;99.90;;;;;;5053075;28;20452;-62
2022/05/17 11:58:05;;;;;;;9.50;8.50;;;22.30;99.90;;;;;;5053216;28;20449;-62
2022/05/17 12:00:43;;;;;;;11.93;9.30;;;22.50;99.90;;;;;;5051472;28;20563;-62
2022/05/17 12:03:51;;;;;;;10.53;8.37;;;22.30;99.90;;;;;;5033181;28;20964;-61
2022/05/17 12:06:38;;;;;;;10.10;7.03;;;22.40;99.90;;;;;;5033226;28;20445;-53
2022/05/17 12:09:11;;;;;;;10.90;7.37;;;22.60;99.90;;;;;;5033325;28;20540;-61
2022/05/17 12:11:48;;;;;;;10.57;6.40;;;22.80;99.90;;;;;;5054267;28;20456;-60
2022/05/17 12:14:21;;;;;;;8.47;6.40;;;23.00;99.90;;;;;;5053083;28;20551;-60
2022/05/17 12:16:50;;;;;;;7.53;6.83;;;22.90;99.90;;;;;;5052889;28;20498;-59
2022/05/17 12:19:22;;;;;;;7.10;6.50;;;22.80;99.90;;;;;;5056090;28;20474;-61
2022/05/17 12:21:56;;;;;;;13.47;6.90;;;22.80;99.90;;;;;;5053782;28;20822;-62
2022/05/17 12:24:37;;;;;;;9.13;6.47;;;22.60;99.90;;;;;;5052643;28;20484;-62
2022/05/17 12:27:19;;;;;;;10.90;6.67;;;22.70;99.90;;;;;;5052707;28;20921;-62
2022/05/17 12:32:37;;;;;;;11.90;6.17;;;22.60;99.90;;;;;;5052930;28;21047;-62
2022/05/17 12:35:05;;;;;;;4.43;3.97;;;22.70;99.90;;;;;;5052748;28;20455;-63
2022/05/17 12:37:32;;;;;;;4.70;4.23;;;23.00;99.90;;;;;;5052787;28;20528;-62
2022/05/17 12:43:05;;;;;;;6.60;5.03;;;23.60;99.90;;;;;;5052366;28;20487;-63
2022/05/17 12:45:35;;;;;;;4.47;3.33;;;23.50;99.90;;;;;;5052725;28;20509;-63
2022/05/17 12:48:03;;;;;;;5.53;3.70;;;23.60;99.90;;;;;;5052557;28;20538;-63
2022/05/17 12:50:40;;;;;;;7.47;5.03;;;24.00;99.90;;;;;;5052483;28;20448;-62
2022/05/17 12:53:17;;;;;;;6.13;5.23;;;24.40;99.90;;;;;;5052580;28;20538;-63
2022/05/17 12:55:59;;;;;;;11.67;5.20;;;24.40;99.90;;;;;;5052411;28;20477;-62
2022/05/17 12:58:25;;;;;;;6.10;4.90;;;24.20;99.90;;;;;;5052810;28;20455;-62
2022/05/17 13:00:55;;;;;;;5.20;4.70;;;23.90;99.90;;;;;;5052396;28;20559;-62
2022/05/17 13:03:25;;;;;;;5.87;4.83;;;23.40;99.90;;;;;;5052299;28;20486;-63
2022/05/17 13:05:53;;;;;;;8.67;4.40;;;23.40;99.90;;;;;;5052239;28;20455;-63
2022/05/17 13:08:23;;;;;;;4.97;4.50;;;23.40;99.90;;;;;;5052515;28;20526;-63
2022/05/17 13:11:06;;;;;;;6.30;5.10;;;23.50;99.90;;;;;;5052745;28;20491;-63
2022/05/17 13:13:36;;;;;;;6.00;5.10;;;23.80;99.90;;;;;;5052393;28;20534;-63
2022/05/17 13:16:06;;;;;;;8.27;5.20;;;24.00;99.90;;;;;;5052203;28;20516;-63